Rutherford, Indiana
Current Conditions -  °F | °C
As of 9:15 AM on Friday 19 Dec 2014 (Local Time) from KDCY Reporting Station
Scattered Clouds Scattered Clouds  
Wind Chill: 29°   Ceiling: Unl
Heat Index: 29°   Visibility: 10mi
Dew Point: 21°   Wind: 3mph
Humidity: 72%   Direction: 60°ENE
Pressure: 30.33"   Gusts: NA
Location:  38.6074°N, 86.9234°W
Report Text: KDCY 191515Z AUTO 06003KT 10SM SCT013 M02/M06 A3033 RMK AO2 T10181062
Loading
Personal Weather Stations






























Interactive Weather Map New forecast layout! Learn more

10-Day Weather Forecast

Advertisements
Track Severe Weather on mobile